Photometre #742[NE_1.6_Dp] OHP_OBSERVATOIRE AOT

File : 20190926_742.hum

26/09/2019,06:18:27,TEMP=13.1,BA=5.64,STAT.A,ExtBa=13.24
26/09/2019,06:22:03,TEMP=13.5,BA=5.52,STAT.A,ExtBa=13.19
26/09/2019,06:26:15,TEMP=13.9,BA=5.52,STAT.A,ExtBa=13.19
26/09/2019,06:31:14,TEMP=14.4,BA=5.64,STAT.A,ExtBa=13.16
26/09/2019,06:37:16,TEMP=15.2,BA=5.64,STAT.A,ExtBa=13.15
26/09/2019,06:44:42,TEMP=16.0,BA=5.64,STAT.A,ExtBa=13.16
26/09/2019,06:54:08,TEMP=16.9,BA=5.64,STAT.B,ExtBa=13.21
26/09/2019,07:02:27,TEMP=17.7,BA=5.48,STAT.A,ExtBa=12.75
26/09/2019,07:04:26,TEMP=18.0,BA=5.48,STAT.A,ExtBa=12.82
26/09/2019,07:09:24,TEMP=17.7,BA=5.48,STAT.A,ExtBa=12.97
26/09/2019,07:15:54,TEMP=17.9,BA=5.48,STAT.A,ExtBa=13.06
26/09/2019,07:23:23,TEMP=18.0,BA=5.64,STAT.C,ExtBa=13.13
26/09/2019,07:45:23,TEMP=20.8,BA=5.48,STAT.A,ExtBa=12.82
26/09/2019,07:47:24,TEMP=20.6,BA=5.48,STAT.A,ExtBa=12.87
26/09/2019,07:54:51,TEMP=19.9,BA=5.64,STAT.A,ExtBa=13.09
26/09/2019,08:10:14,TEMP=20.7,BA=5.56,STAT.A,ExtBa=13.30
26/09/2019,08:29:12,TEMP=22.1,BA=5.64,STAT.F,ExtBa=13.33
26/09/2019,08:51:05,TEMP=24.3,BA=5.48,STAT.D,ExtBa=12.84
26/09/2019,08:59:11,TEMP=23.0,BA=5.48,STAT.D,ExtBa=13.13
26/09/2019,09:14:11,TEMP=23.5,BA=5.60,STAT.D,ExtBa=13.29
26/09/2019,09:29:12,TEMP=24.2,BA=5.60,STAT.F,ExtBa=13.30
26/09/2019,09:54:24,TEMP=25.0,BA=5.48,STAT.D,ExtBa=13.05
26/09/2019,09:59:11,TEMP=25.1,BA=5.48,STAT.D,ExtBa=13.11
26/09/2019,10:14:11,TEMP=25.1,BA=5.60,STAT.D,ExtBa=13.28
26/09/2019,10:29:13,TEMP=25.7,BA=5.60,STAT.F,ExtBa=13.29
26/09/2019,10:51:17,TEMP=27.3,BA=5.44,STAT.D,ExtBa=12.84
26/09/2019,10:59:11,TEMP=26.2,BA=5.44,STAT.D,ExtBa=13.12
26/09/2019,11:14:11,TEMP=26.3,BA=5.60,STAT.D,ExtBa=13.27
26/09/2019,11:29:13,TEMP=26.9,BA=5.60,STAT.F,ExtBa=13.29
26/09/2019,11:51:24,TEMP=28.4,BA=5.44,STAT.D,ExtBa=12.83
26/09/2019,11:59:11,TEMP=27.2,BA=5.44,STAT.D,ExtBa=13.10
26/09/2019,12:14:11,TEMP=27.1,BA=5.60,STAT.D,ExtBa=13.26
26/09/2019,12:29:13,TEMP=27.4,BA=5.60,STAT.F,ExtBa=13.27
26/09/2019,12:50:12,TEMP=29.0,BA=5.44,STAT.D,ExtBa=12.82
26/09/2019,12:59:11,TEMP=27.8,BA=5.44,STAT.D,ExtBa=13.11
26/09/2019,13:14:11,TEMP=28.0,BA=5.60,STAT.D,ExtBa=13.25
26/09/2019,13:29:13,TEMP=27.9,BA=5.60,STAT.F,ExtBa=13.27
26/09/2019,13:50:11,TEMP=29.1,BA=5.44,STAT.D,ExtBa=12.81
26/09/2019,13:59:11,TEMP=27.4,BA=5.44,STAT.D,ExtBa=13.11
26/09/2019,14:14:11,TEMP=27.2,BA=5.60,STAT.D,ExtBa=13.25
26/09/2019,14:29:12,TEMP=27.2,BA=5.60,STAT.F,ExtBa=13.26
26/09/2019,14:50:40,TEMP=29.0,BA=5.40,STAT.A,ExtBa=12.79
26/09/2019,15:03:33,TEMP=27.5,BA=5.60,STAT.A,ExtBa=13.17
26/09/2019,15:15:59,TEMP=27.3,BA=5.60,STAT.A,ExtBa=13.25
26/09/2019,15:26:18,TEMP=26.9,BA=5.60,STAT.A,ExtBa=13.26
26/09/2019,15:35:01,TEMP=26.7,BA=5.60,STAT.C,ExtBa=13.27
26/09/2019,15:56:59,TEMP=27.7,BA=5.44,STAT.A,ExtBa=12.77
26/09/2019,15:59:00,TEMP=27.2,BA=5.44,STAT.A,ExtBa=12.80
26/09/2019,16:01:10,TEMP=26.9,BA=5.44,STAT.A,ExtBa=12.79
26/09/2019,16:03:06,TEMP=26.7,BA=5.44,STAT.A,ExtBa=12.82
26/09/2019,16:05:08,TEMP=26.6,BA=5.44,STAT.B,ExtBa=12.82
26/09/2019,16:13:40,TEMP=25.6,BA=5.40,STAT.A,ExtBa=12.76
26/09/2019,16:21:06,TEMP=25.2,BA=5.60,STAT.A,ExtBa=13.03
26/09/2019,16:27:08,TEMP=25.1,BA=5.60,STAT.A,ExtBa=13.07
26/09/2019,16:32:07,TEMP=25.0,BA=5.60,STAT.A,ExtBa=13.05
26/09/2019,16:41:49,TEMP=24.5,BA=5.44,STAT.A,ExtBa=13.17
26/09/2019,16:43:50,TEMP=24.9,BA=5.44,STAT.A,ExtBa=13.06